sensor_id;sensor_type;location;lat;lon;timestamp;pressure;altitude;pressure_sealevel;temperature;humidity
35224;BME280;21367;51.930;8.112;2023-02-12T00:02:15;103122.81;;;7.76;100.00
35224;BME280;21367;51.930;8.112;2023-02-12T00:07:18;103120.22;;;7.57;100.00
35224;BME280;21367;51.930;8.112;2023-02-12T00:12:25;103113.13;;;7.82;100.00
35224;BME280;21367;51.930;8.112;2023-02-12T00:17:29;103113.91;;;7.54;100.00
35224;BME280;21367;51.930;8.112;2023-02-12T00:22:32;103107.09;;;7.63;100.00
35224;BME280;21367;51.930;8.112;2023-02-12T00:27:39;103118.66;;;7.68;100.00
35224;BME280;21367;51.930;8.112;2023-02-12T00:32:43;103124.56;;;7.86;100.00
35224;BME280;21367;51.930;8.112;2023-02-12T00:37:47;103121.75;;;7.55;100.00
35224;BME280;21367;51.930;8.112;2023-02-12T00:42:53;103125.31;;;7.85;100.00
35224;BME280;21367;51.930;8.112;2023-02-12T00:47:57;103123.13;;;7.71;100.00
35224;BME280;21367;51.930;8.112;2023-02-12T00:53:01;103129.03;;;7.70;100.00
35224;BME280;21367;51.930;8.112;2023-02-12T00:58:07;103127.28;;;7.87;100.00
35224;BME280;21367;51.930;8.112;2023-02-12T01:03:11;103124.72;;;7.87;100.00
35224;BME280;21367;51.930;8.112;2023-02-12T01:08:15;103122.66;;;7.56;100.00
35224;BME280;21367;51.930;8.112;2023-02-12T01:13:22;103124.81;;;7.70;100.00
35224;BME280;21367;51.930;8.112;2023-02-12T01:18:26;103130.31;;;7.83;100.00
35224;BME280;21367;51.930;8.112;2023-02-12T01:23:29;103123.59;;;7.75;100.00
35224;BME280;21367;51.930;8.112;2023-02-12T01:28:37;103124.53;;;7.67;100.00
35224;BME280;21367;51.930;8.112;2023-02-12T01:33:43;103129.47;;;7.47;100.00
35224;BME280;21367;51.930;8.112;2023-02-12T01:38:47;103135.88;;;7.52;100.00
35224;BME280;21367;51.930;8.112;2023-02-12T01:49:31;103131.78;;;7.26;100.00
35224;BME280;21367;51.930;8.112;2023-02-12T01:54:37;103128.88;;;7.40;100.00
35224;BME280;21367;51.930;8.112;2023-02-12T01:59:42;103126.88;;;7.10;100.00
35224;BME280;21367;51.930;8.112;2023-02-12T02:04:50;103123.47;;;7.37;100.00
35224;BME280;21367;51.930;8.112;2023-02-12T02:09:56;103129.06;;;7.61;100.00
35224;BME280;21367;51.930;8.112;2023-02-12T02:15:03;103126.16;;;7.39;100.00
35224;BME280;21367;51.930;8.112;2023-02-12T02:20:37;103133.91;;;7.58;100.00
35224;BME280;21367;51.930;8.112;2023-02-12T02:25:58;103133.78;;;7.84;100.00
35224;BME280;21367;51.930;8.112;2023-02-12T02:31:10;103129.97;;;7.61;100.00
35224;BME280;21367;51.930;8.112;2023-02-12T02:36:24;103125.09;;;7.73;100.00
35224;BME280;21367;51.930;8.112;2023-02-12T02:41:34;103118.66;;;7.68;100.00
35224;BME280;21367;51.930;8.112;2023-02-12T02:46:45;103121.19;;;7.49;100.00
35224;BME280;21367;51.930;8.112;2023-02-12T02:51:52;103115.06;;;7.66;100.00
35224;BME280;21367;51.930;8.112;2023-02-12T02:57:06;103109.09;;;7.57;100.00
35224;BME280;21367;51.930;8.112;2023-02-12T03:02:16;103110.69;;;7.65;100.00
35224;BME280;21367;51.930;8.112;2023-02-12T03:07:26;103116.97;;;7.50;100.00
35224;BME280;21367;51.930;8.112;2023-02-12T03:12:35;103112.38;;;7.28;100.00
35224;BME280;21367;51.930;8.112;2023-02-12T03:17:44;103122.09;;;7.41;100.00
35224;BME280;21367;51.930;8.112;2023-02-12T03:22:52;103113.63;;;7.14;100.00
35224;BME280;21367;51.930;8.112;2023-02-12T03:28:03;103108.91;;;7.36;100.00
35224;BME280;21367;51.930;8.112;2023-02-12T03:33:16;103108.22;;;7.48;100.00
35224;BME280;21367;51.930;8.112;2023-02-12T03:38:30;103109.63;;;7.35;100.00
35224;BME280;21367;51.930;8.112;2023-02-12T03:43:44;103104.53;;;7.35;100.00
35224;BME280;21367;51.930;8.112;2023-02-12T03:48:59;103107.44;;;7.49;100.00
35224;BME280;21367;51.930;8.112;2023-02-12T03:54:05;103113.66;;;7.42;100.00
35224;BME280;21367;51.930;8.112;2023-02-12T03:59:10;103120.31;;;7.40;100.00
35224;BME280;21367;51.930;8.112;2023-02-12T04:04:17;103115.03;;;7.38;100.00
35224;BME280;21367;51.930;8.112;2023-02-12T04:09:23;103123.91;;;7.70;100.00
35224;BME280;21367;51.930;8.112;2023-02-12T04:14:35;103130.94;;;7.53;100.00
35224;BME280;21367;51.930;8.112;2023-02-12T04:19:53;103137.63;;;7.61;100.00
35224;BME280;21367;51.930;8.112;2023-02-12T04:25:06;103139.81;;;7.48;100.00
35224;BME280;21367;51.930;8.112;2023-02-12T04:30:20;103144.19;;;7.49;100.00
35224;BME280;21367;51.930;8.112;2023-02-12T04:35:31;103158.22;;;7.44;100.00
35224;BME280;21367;51.930;8.112;2023-02-12T04:40:38;103155.84;;;7.37;100.00
35224;BME280;21367;51.930;8.112;2023-02-12T04:45:42;103160.59;;;7.42;100.00
35224;BME280;21367;51.930;8.112;2023-02-12T04:50:48;103164.78;;;7.59;100.00
35224;BME280;21367;51.930;8.112;2023-02-12T04:55:52;103163.09;;;7.60;100.00
35224;BME280;21367;51.930;8.112;2023-02-12T05:00:57;103171.78;;;7.34;100.00
35224;BME280;21367;51.930;8.112;2023-02-12T05:06:05;103170.00;;;7.33;100.00
35224;BME280;21367;51.930;8.112;2023-02-12T05:11:10;103176.94;;;7.17;100.00
35224;BME280;21367;51.930;8.112;2023-02-12T05:16:15;103170.63;;;7.22;100.00
35224;BME280;21367;51.930;8.112;2023-02-12T05:21:22;103169.41;;;7.27;100.00
35224;BME280;21367;51.930;8.112;2023-02-12T05:26:26;103171.19;;;7.37;100.00
35224;BME280;21367;51.930;8.112;2023-02-12T05:31:29;103166.69;;;7.34;100.00
35224;BME280;21367;51.930;8.112;2023-02-12T05:36:36;103169.88;;;7.23;100.00
35224;BME280;21367;51.930;8.112;2023-02-12T05:41:40;103168.78;;;7.30;100.00
35224;BME280;21367;51.930;8.112;2023-02-12T05:46:43;103169.59;;;7.56;100.00
35224;BME280;21367;51.930;8.112;2023-02-12T05:51:52;103177.44;;;7.04;100.00
35224;BME280;21367;51.930;8.112;2023-02-12T05:56:55;103175.16;;;7.07;100.00
35224;BME280;21367;51.930;8.112;2023-02-12T06:01:59;103177.91;;;6.91;100.00
35224;BME280;21367;51.930;8.112;2023-02-12T06:07:06;103179.50;;;7.17;100.00
35224;BME280;21367;51.930;8.112;2023-02-12T06:12:09;103183.41;;;7.31;100.00
35224;BME280;21367;51.930;8.112;2023-02-12T06:17:13;103186.59;;;7.11;100.00
35224;BME280;21367;51.930;8.112;2023-02-12T06:22:19;103183.09;;;7.28;100.00
35224;BME280;21367;51.930;8.112;2023-02-12T06:27:23;103189.22;;;7.38;100.00
35224;BME280;21367;51.930;8.112;2023-02-12T06:32:27;103186.38;;;7.35;100.00
35224;BME280;21367;51.930;8.112;2023-02-12T06:37:34;103185.06;;;7.22;100.00
35224;BME280;21367;51.930;8.112;2023-02-12T06:42:41;103188.22;;;7.28;100.00
35224;BME280;21367;51.930;8.112;2023-02-12T06:47:46;103203.81;;;7.39;100.00
35224;BME280;21367;51.930;8.112;2023-02-12T06:52:53;103198.38;;;7.45;100.00
35224;BME280;21367;51.930;8.112;2023-02-12T06:57:58;103217.44;;;7.21;100.00
35224;BME280;21367;51.930;8.112;2023-02-12T07:03:03;103215.28;;;7.34;100.00
35224;BME280;21367;51.930;8.112;2023-02-12T07:08:10;103214.88;;;7.21;100.00
35224;BME280;21367;51.930;8.112;2023-02-12T07:13:13;103211.66;;;7.41;100.00
35224;BME280;21367;51.930;8.112;2023-02-12T07:18:19;103219.44;;;7.51;100.00
35224;BME280;21367;51.930;8.112;2023-02-12T07:23:25;103228.19;;;7.36;100.00
35224;BME280;21367;51.930;8.112;2023-02-12T07:28:29;103234.38;;;7.38;100.00
35224;BME280;21367;51.930;8.112;2023-02-12T07:33:34;103230.94;;;7.74;100.00
35224;BME280;21367;51.930;8.112;2023-02-12T07:38:40;103250.00;;;7.50;100.00
35224;BME280;21367;51.930;8.112;2023-02-12T07:43:46;103259.38;;;7.77;100.00
35224;BME280;21367;51.930;8.112;2023-02-12T07:48:51;103265.75;;;7.63;100.00
35224;BME280;21367;51.930;8.112;2023-02-12T07:53:58;103262.16;;;7.61;100.00
35224;BME280;21367;51.930;8.112;2023-02-12T07:59:05;103265.44;;;7.69;100.00
35224;BME280;21367;51.930;8.112;2023-02-12T08:04:10;103271.00;;;7.64;100.00
35224;BME280;21367;51.930;8.112;2023-02-12T08:09:19;103269.88;;;7.88;100.00
35224;BME280;21367;51.930;8.112;2023-02-12T08:14:25;103270.13;;;7.64;100.00
35224;BME280;21367;51.930;8.112;2023-02-12T08:19:28;103277.00;;;7.74;100.00
35224;BME280;21367;51.930;8.112;2023-02-12T08:24:35;103277.34;;;8.04;100.00
35224;BME280;21367;51.930;8.112;2023-02-12T08:29:38;103279.84;;;7.85;100.00
35224;BME280;21367;51.930;8.112;2023-02-12T08:34:42;103288.97;;;8.01;100.00
35224;BME280;21367;51.930;8.112;2023-02-12T08:39:48;103287.22;;;8.19;100.00
35224;BME280;21367;51.930;8.112;2023-02-12T08:44:52;103291.50;;;8.09;100.00
35224;BME280;21367;51.930;8.112;2023-02-12T08:49:56;103300.34;;;8.49;100.00
35224;BME280;21367;51.930;8.112;2023-02-12T08:55:03;103299.03;;;8.44;100.00
35224;BME280;21367;51.930;8.112;2023-02-12T09:00:08;103299.34;;;8.39;100.00
35224;BME280;21367;51.930;8.112;2023-02-12T09:05:12;103303.28;;;9.00;98.35
35224;BME280;21367;51.930;8.112;2023-02-12T09:10:19;103294.03;;;9.40;95.69
35224;BME280;21367;51.930;8.112;2023-02-12T09:15:23;103296.91;;;9.54;94.10
35224;BME280;21367;51.930;8.112;2023-02-12T09:20:26;103304.03;;;9.77;92.42
35224;BME280;21367;51.930;8.112;2023-02-12T09:25:37;103306.31;;;9.63;93.16
35224;BME280;21367;51.930;8.112;2023-02-12T09:30:41;103311.09;;;9.69;92.49
35224;BME280;21367;51.930;8.112;2023-02-12T09:35:45;103327.13;;;9.37;91.07
35224;BME280;21367;51.930;8.112;2023-02-12T09:41:06;103317.69;;;9.86;90.30
35224;BME280;21367;51.930;8.112;2023-02-12T09:46:19;103314.84;;;9.43;92.38
35224;BME280;21367;51.930;8.112;2023-02-12T09:51:23;103327.28;;;9.01;96.13
35224;BME280;21367;51.930;8.112;2023-02-12T09:56:33;103326.69;;;9.62;92.52
35224;BME280;21367;51.930;8.112;2023-02-12T10:01:38;103332.72;;;9.81;90.49
35224;BME280;21367;51.930;8.112;2023-02-12T10:06:50;103327.44;;;9.90;88.42
35224;BME280;21367;51.930;8.112;2023-02-12T10:12:03;103328.53;;;9.63;88.54
35224;BME280;21367;51.930;8.112;2023-02-12T10:17:18;103337.25;;;9.65;90.27
35224;BME280;21367;51.930;8.112;2023-02-12T10:22:29;103337.88;;;9.91;88.88
35224;BME280;21367;51.930;8.112;2023-02-12T10:27:44;103326.38;;;10.17;86.64
35224;BME280;21367;51.930;8.112;2023-02-12T10:32:55;103327.25;;;10.17;87.16
35224;BME280;21367;51.930;8.112;2023-02-12T10:38:04;103328.41;;;10.11;87.57
35224;BME280;21367;51.930;8.112;2023-02-12T10:43:12;103333.75;;;10.33;87.53
35224;BME280;21367;51.930;8.112;2023-02-12T10:48:19;103329.97;;;10.19;88.28
35224;BME280;21367;51.930;8.112;2023-02-12T10:53:26;103326.25;;;10.26;87.20
35224;BME280;21367;51.930;8.112;2023-02-12T10:58:36;103320.19;;;10.15;88.28
35224;BME280;21367;51.930;8.112;2023-02-12T11:03:41;103320.00;;;9.93;88.27
35224;BME280;21367;51.930;8.112;2023-02-12T11:08:46;103323.34;;;9.82;90.25
35224;BME280;21367;51.930;8.112;2023-02-12T11:13:56;103322.84;;;9.96;90.43
35224;BME280;21367;51.930;8.112;2023-02-12T11:19:03;103318.03;;;9.80;90.51
35224;BME280;21367;51.930;8.112;2023-02-12T11:24:34;103317.44;;;10.42;89.15
35224;BME280;21367;51.930;8.112;2023-02-12T11:29:41;103307.53;;;10.68;87.33
35224;BME280;21367;51.930;8.112;2023-02-12T11:35:03;103308.47;;;10.37;87.30
35224;BME280;21367;51.930;8.112;2023-02-12T11:40:15;103298.28;;;10.49;87.71
35224;BME280;21367;51.930;8.112;2023-02-12T11:45:27;103295.59;;;10.37;86.73
35224;BME280;21367;51.930;8.112;2023-02-12T11:50:34;103289.16;;;10.42;87.67
35224;BME280;21367;51.930;8.112;2023-02-12T11:55:39;103286.34;;;10.60;85.08
35224;BME280;21367;51.930;8.112;2023-02-12T12:00:49;103285.09;;;11.07;84.36
35224;BME280;21367;51.930;8.112;2023-02-12T12:06:00;103270.31;;;11.05;83.12
35224;BME280;21367;51.930;8.112;2023-02-12T12:11:11;103278.59;;;10.80;84.20
35224;BME280;21367;51.930;8.112;2023-02-12T12:16:24;103272.53;;;11.00;83.93
35224;BME280;21367;51.930;8.112;2023-02-12T12:21:47;103253.28;;;11.17;83.26
35224;BME280;21367;51.930;8.112;2023-02-12T12:27:00;103252.56;;;11.62;80.59
35224;BME280;21367;51.930;8.112;2023-02-12T12:32:20;103248.19;;;11.83;79.76
35224;BME280;21367;51.930;8.112;2023-02-12T12:37:32;103240.25;;;12.02;79.45
35224;BME280;21367;51.930;8.112;2023-02-12T12:42:55;103249.72;;;11.69;78.87
35224;BME280;21367;51.930;8.112;2023-02-12T12:48:13;103241.66;;;11.54;80.46
35224;BME280;21367;51.930;8.112;2023-02-12T12:53:32;103238.69;;;11.28;81.68
35224;BME280;21367;51.930;8.112;2023-02-12T12:58:58;103229.69;;;11.77;79.76
35224;BME280;21367;51.930;8.112;2023-02-12T13:04:40;103218.13;;;12.27;77.93
35224;BME280;21367;51.930;8.112;2023-02-12T13:10:09;103207.06;;;11.73;79.38
35224;BME280;21367;51.930;8.112;2023-02-12T13:15:24;103204.63;;;11.20;78.26
35224;BME280;21367;51.930;8.112;2023-02-12T13:20:38;103204.47;;;11.51;78.95
35224;BME280;21367;51.930;8.112;2023-02-12T13:25:51;103196.94;;;11.64;77.83
35224;BME280;21367;51.930;8.112;2023-02-12T13:31:03;103195.72;;;11.93;77.12
35224;BME280;21367;51.930;8.112;2023-02-12T13:36:13;103202.78;;;11.95;77.08
35224;BME280;21367;51.930;8.112;2023-02-12T13:41:17;103203.59;;;11.94;77.08
35224;BME280;21367;51.930;8.112;2023-02-12T13:46:24;103203.50;;;11.39;78.25
35224;BME280;21367;51.930;8.112;2023-02-12T13:51:44;103197.34;;;11.58;78.25
35224;BME280;21367;51.930;8.112;2023-02-12T13:56:49;103206.78;;;11.26;78.93
35224;BME280;21367;51.930;8.112;2023-02-12T14:01:54;103200.03;;;11.38;80.31
35224;BME280;21367;51.930;8.112;2023-02-12T14:07:03;103206.91;;;10.95;81.82
35224;BME280;21367;51.930;8.112;2023-02-12T14:12:09;103202.00;;;11.30;79.62
35224;BME280;21367;51.930;8.112;2023-02-12T14:17:51;103203.94;;;11.01;79.85
35224;BME280;21367;51.930;8.112;2023-02-12T14:28:31;103207.75;;;11.06;79.87
35224;BME280;21367;51.930;8.112;2023-02-12T14:33:38;103209.38;;;10.83;81.66
35224;BME280;21367;51.930;8.112;2023-02-12T14:39:01;103211.13;;;10.52;82.85
35224;BME280;21367;51.930;8.112;2023-02-12T14:49:47;103195.94;;;10.55;82.50
35224;BME280;21367;51.930;8.112;2023-02-12T14:54:59;103194.97;;;10.85;81.27
35224;BME280;21367;51.930;8.112;2023-02-12T15:00:18;103194.53;;;10.49;83.67
35224;BME280;21367;51.930;8.112;2023-02-12T15:05:26;103201.25;;;10.26;84.85
35224;BME280;21367;51.930;8.112;2023-02-12T15:10:36;103197.91;;;10.37;83.79
35224;BME280;21367;51.930;8.112;2023-02-12T15:15:46;103198.50;;;10.55;83.03
35224;BME280;21367;51.930;8.112;2023-02-12T15:20:56;103198.13;;;10.61;83.13
35224;BME280;21367;51.930;8.112;2023-02-12T15:26:10;103199.44;;;10.46;83.71
35224;BME280;21367;51.930;8.112;2023-02-12T15:31:18;103190.06;;;10.36;84.39
35224;BME280;21367;51.930;8.112;2023-02-12T15:36:24;103194.00;;;10.53;84.16
35224;BME280;21367;51.930;8.112;2023-02-12T15:41:38;103190.19;;;10.27;84.52
35224;BME280;21367;51.930;8.112;2023-02-12T15:46:55;103191.44;;;10.02;85.16
35224;BME280;21367;51.930;8.112;2023-02-12T15:52:02;103195.19;;;9.85;87.11
35224;BME280;21367;51.930;8.112;2023-02-12T15:57:19;103195.19;;;9.85;88.18
35224;BME280;21367;51.930;8.112;2023-02-12T16:02:25;103186.59;;;10.25;86.73
35224;BME280;21367;51.930;8.112;2023-02-12T16:07:35;103195.53;;;10.00;87.49
35224;BME280;21367;51.930;8.112;2023-02-12T16:12:41;103185.34;;;9.50;90.12
35224;BME280;21367;51.930;8.112;2023-02-12T16:17:46;103191.66;;;9.54;90.61
35224;BME280;21367;51.930;8.112;2023-02-12T16:22:50;103186.56;;;9.24;91.80
35224;BME280;21367;51.930;8.112;2023-02-12T16:28:02;103188.31;;;9.55;91.30
35224;BME280;21367;51.930;8.112;2023-02-12T16:33:31;103198.03;;;9.48;90.58
35224;BME280;21367;51.930;8.112;2023-02-12T16:38:40;103188.88;;;9.21;92.69
35224;BME280;21367;51.930;8.112;2023-02-12T16:43:47;103192.78;;;9.47;92.22
35224;BME280;21367;51.930;8.112;2023-02-12T16:48:53;103186.88;;;9.48;91.16
35224;BME280;21367;51.930;8.112;2023-02-12T16:53:59;103197.28;;;9.10;93.38
35224;BME280;21367;51.930;8.112;2023-02-12T16:59:06;103192.31;;;9.22;92.43
35224;BME280;21367;51.930;8.112;2023-02-12T17:04:13;103204.00;;;9.18;93.42
35224;BME280;21367;51.930;8.112;2023-02-12T17:09:17;103209.00;;;9.27;93.00
35224;BME280;21367;51.930;8.112;2023-02-12T17:14:23;103204.56;;;9.35;92.23
35224;BME280;21367;51.930;8.112;2023-02-12T17:19:27;103206.22;;;9.34;92.17
35224;BME280;21367;51.930;8.112;2023-02-12T17:24:31;103213.31;;;9.47;91.94
35224;BME280;21367;51.930;8.112;2023-02-12T17:29:39;103222.75;;;9.27;91.71
35224;BME280;21367;51.930;8.112;2023-02-12T17:34:43;103236.88;;;9.33;93.09
35224;BME280;21367;51.930;8.112;2023-02-12T17:39:46;103236.84;;;9.22;92.80
35224;BME280;21367;51.930;8.112;2023-02-12T17:44:54;103232.06;;;9.17;94.90
35224;BME280;21367;51.930;8.112;2023-02-12T17:49:59;103235.31;;;9.24;93.10
35224;BME280;21367;51.930;8.112;2023-02-12T17:55:06;103240.53;;;9.16;93.47
35224;BME280;21367;51.930;8.112;2023-02-12T18:00:15;103234.09;;;9.11;94.52
35224;BME280;21367;51.930;8.112;2023-02-12T18:05:19;103240.72;;;9.09;94.35
35224;BME280;21367;51.930;8.112;2023-02-12T18:10:23;103235.06;;;9.21;93.90
35224;BME280;21367;51.930;8.112;2023-02-12T18:15:30;103238.63;;;9.23;94.08
35224;BME280;21367;51.930;8.112;2023-02-12T18:20:34;103244.53;;;9.22;93.75
35224;BME280;21367;51.930;8.112;2023-02-12T18:25:39;103235.25;;;9.14;93.50
35224;BME280;21367;51.930;8.112;2023-02-12T18:30:54;103238.94;;;9.08;93.84
35224;BME280;21367;51.930;8.112;2023-02-12T18:35:59;103233.03;;;9.09;94.94
35224;BME280;21367;51.930;8.112;2023-02-12T18:41:05;103227.75;;;8.97;94.21
35224;BME280;21367;51.930;8.112;2023-02-12T18:46:14;103230.75;;;9.12;94.08
35224;BME280;21367;51.930;8.112;2023-02-12T18:51:20;103231.50;;;8.44;96.06
35224;BME280;21367;51.930;8.112;2023-02-12T18:56:24;103238.84;;;8.49;98.54
35224;BME280;21367;51.930;8.112;2023-02-12T19:01:32;103230.59;;;8.81;96.63
35224;BME280;21367;51.930;8.112;2023-02-12T19:06:38;103231.50;;;8.35;97.04
35224;BME280;21367;51.930;8.112;2023-02-12T19:11:44;103235.63;;;8.90;96.51
35224;BME280;21367;51.930;8.112;2023-02-12T19:16:51;103239.94;;;8.62;96.26
35224;BME280;21367;51.930;8.112;2023-02-12T19:21:55;103236.91;;;8.85;95.70
35224;BME280;21367;51.930;8.112;2023-02-12T19:26:59;103241.19;;;8.94;95.11
35224;BME280;21367;51.930;8.112;2023-02-12T19:32:05;103243.41;;;9.00;95.75
35224;BME280;21367;51.930;8.112;2023-02-12T19:37:09;103233.41;;;9.03;94.26
35224;BME280;21367;51.930;8.112;2023-02-12T19:42:14;103243.13;;;8.97;94.23
35224;BME280;21367;51.930;8.112;2023-02-12T19:47:20;103232.53;;;9.02;94.05
35224;BME280;21367;51.930;8.112;2023-02-12T19:52:24;103234.00;;;9.19;93.33
35224;BME280;21367;51.930;8.112;2023-02-12T19:57:27;103225.06;;;9.06;93.52
35224;BME280;21367;51.930;8.112;2023-02-12T20:02:33;103231.84;;;8.76;95.41
35224;BME280;21367;51.930;8.112;2023-02-12T20:07:37;103223.81;;;9.11;93.08
35224;BME280;21367;51.930;8.112;2023-02-12T20:12:41;103225.44;;;9.00;93.38
35224;BME280;21367;51.930;8.112;2023-02-12T20:17:49;103232.78;;;8.87;93.85
35224;BME280;21367;51.930;8.112;2023-02-12T20:22:52;103234.81;;;8.80;94.69
35224;BME280;21367;51.930;8.112;2023-02-12T20:27:57;103236.19;;;8.77;93.63
35224;BME280;21367;51.930;8.112;2023-02-12T20:33:04;103231.28;;;8.89;93.25
35224;BME280;21367;51.930;8.112;2023-02-12T20:38:09;103231.91;;;8.86;94.01
35224;BME280;21367;51.930;8.112;2023-02-12T20:43:13;103234.91;;;8.72;94.42
35224;BME280;21367;51.930;8.112;2023-02-12T20:48:22;103232.91;;;8.78;95.26
35224;BME280;21367;51.930;8.112;2023-02-12T20:53:25;103233.72;;;8.87;94.00
35224;BME280;21367;51.930;8.112;2023-02-12T20:58:30;103235.09;;;9.02;92.84
35224;BME280;21367;51.930;8.112;2023-02-12T21:03:36;103236.69;;;8.92;93.81
35224;BME280;21367;51.930;8.112;2023-02-12T21:08:40;103229.91;;;8.73;94.31
35224;BME280;21367;51.930;8.112;2023-02-12T21:13:45;103226.38;;;8.82;94.48
35224;BME280;21367;51.930;8.112;2023-02-12T21:18:53;103223.53;;;8.60;95.12
35224;BME280;21367;51.930;8.112;2023-02-12T21:23:58;103219.38;;;8.70;97.41
35224;BME280;21367;51.930;8.112;2023-02-12T21:29:03;103222.91;;;8.43;97.60
35224;BME280;21367;51.930;8.112;2023-02-12T21:34:11;103224.03;;;8.74;96.16
35224;BME280;21367;51.930;8.112;2023-02-12T21:39:17;103224.31;;;8.31;98.03
35224;BME280;21367;51.930;8.112;2023-02-12T21:44:25;103231.78;;;8.66;96.33
35224;BME280;21367;51.930;8.112;2023-02-12T21:49:32;103231.56;;;8.54;96.67
35224;BME280;21367;51.930;8.112;2023-02-12T21:54:35;103229.81;;;8.82;95.41
35224;BME280;21367;51.930;8.112;2023-02-12T21:59:39;103230.66;;;8.53;96.55
35224;BME280;21367;51.930;8.112;2023-02-12T22:04:46;103229.41;;;8.40;99.00
35224;BME280;21367;51.930;8.112;2023-02-12T22:09:54;103228.72;;;8.70;96.20
35224;BME280;21367;51.930;8.112;2023-02-12T22:14:58;103224.09;;;8.66;95.74
35224;BME280;21367;51.930;8.112;2023-02-12T22:20:05;103222.22;;;8.54;95.81
35224;BME280;21367;51.930;8.112;2023-02-12T22:25:09;103213.84;;;8.19;98.92
35224;BME280;21367;51.930;8.112;2023-02-12T22:30:13;103226.97;;;7.86;100.00
35224;BME280;21367;51.930;8.112;2023-02-12T22:35:20;103223.66;;;8.42;97.37
35224;BME280;21367;51.930;8.112;2023-02-12T22:40:23;103219.84;;;8.47;96.29
35224;BME280;21367;51.930;8.112;2023-02-12T22:45:27;103219.97;;;8.49;96.47
35224;BME280;21367;51.930;8.112;2023-02-12T22:50:33;103221.72;;;8.58;96.76
35224;BME280;21367;51.930;8.112;2023-02-12T22:55:37;103224.09;;;8.47;97.38
35224;BME280;21367;51.930;8.112;2023-02-12T23:00:41;103218.72;;;8.35;96.78
35224;BME280;21367;51.930;8.112;2023-02-12T23:05:47;103221.84;;;7.86;98.67
35224;BME280;21367;51.930;8.112;2023-02-12T23:10:51;103212.78;;;8.17;99.80
35224;BME280;21367;51.930;8.112;2023-02-12T23:15:55;103210.78;;;8.23;99.78
35224;BME280;21367;51.930;8.112;2023-02-12T23:21:01;103205.31;;;8.10;99.62
35224;BME280;21367;51.930;8.112;2023-02-12T23:26:06;103196.66;;;7.99;99.53
35224;BME280;21367;51.930;8.112;2023-02-12T23:31:09;103196.03;;;8.21;99.13
35224;BME280;21367;51.930;8.112;2023-02-12T23:36:15;103184.69;;;8.08;100.00
35224;BME280;21367;51.930;8.112;2023-02-12T23:41:19;103192.34;;;7.53;100.00
35224;BME280;21367;51.930;8.112;2023-02-12T23:46:23;103190.97;;;7.57;100.00
35224;BME280;21367;51.930;8.112;2023-02-12T23:51:29;103195.31;;;7.22;100.00
35224;BME280;21367;51.930;8.112;2023-02-12T23:56:33;103185.63;;;7.73;100.00
